sensor_id;sensor_type;location;lat;lon;timestamp;P1;durP1;ratioP1;P2;durP2;ratioP2
71888;SDS011;59762;49.998;14.858;2024-01-06T00:01:03;66.05;;;22.45;;
71888;SDS011;59762;49.998;14.858;2024-01-06T00:03:42;100.38;;;27.10;;
71888;SDS011;59762;49.998;14.858;2024-01-06T00:06:11;93.07;;;29.00;;
71888;SDS011;59762;49.998;14.858;2024-01-06T00:08:37;74.38;;;21.67;;
71888;SDS011;59762;49.998;14.858;2024-01-06T00:11:03;35.92;;;12.65;;
71888;SDS011;59762;49.998;14.858;2024-01-06T00:13:29;16.60;;;9.27;;
71888;SDS011;59762;49.998;14.858;2024-01-06T00:15:55;24.50;;;9.13;;
71888;SDS011;59762;49.998;14.858;2024-01-06T00:18:20;54.88;;;14.18;;
71888;SDS011;59762;49.998;14.858;2024-01-06T00:20:46;56.35;;;19.98;;
71888;SDS011;59762;49.998;14.858;2024-01-06T00:23:12;64.90;;;20.50;;
71888;SDS011;59762;49.998;14.858;2024-01-06T00:25:38;40.28;;;14.93;;
71888;SDS011;59762;49.998;14.858;2024-01-06T00:28:03;67.53;;;20.48;;
71888;SDS011;59762;49.998;14.858;2024-01-06T00:30:29;78.25;;;26.83;;
71888;SDS011;59762;49.998;14.858;2024-01-06T00:32:55;96.20;;;30.50;;
71888;SDS011;59762;49.998;14.858;2024-01-06T00:35:21;112.60;;;33.75;;
71888;SDS011;59762;49.998;14.858;2024-01-06T00:37:46;64.05;;;20.40;;
71888;SDS011;59762;49.998;14.858;2024-01-06T00:40:12;59.45;;;20.55;;
71888;SDS011;59762;49.998;14.858;2024-01-06T00:42:38;69.97;;;21.63;;
71888;SDS011;59762;49.998;14.858;2024-01-06T00:45:04;66.00;;;16.67;;
71888;SDS011;59762;49.998;14.858;2024-01-06T00:47:30;36.03;;;12.30;;
71888;SDS011;59762;49.998;14.858;2024-01-06T00:49:56;23.55;;;10.23;;
71888;SDS011;59762;49.998;14.858;2024-01-06T00:52:22;42.47;;;13.65;;
71888;SDS011;59762;49.998;14.858;2024-01-06T00:54:48;42.13;;;15.00;;
71888;SDS011;59762;49.998;14.858;2024-01-06T00:57:14;46.72;;;15.13;;
71888;SDS011;59762;49.998;14.858;2024-01-06T00:59:39;16.63;;;7.60;;
71888;SDS011;59762;49.998;14.858;2024-01-06T01:02:05;20.15;;;10.20;;
71888;SDS011;59762;49.998;14.858;2024-01-06T01:04:31;27.85;;;10.60;;
71888;SDS011;59762;49.998;14.858;2024-01-06T01:06:56;31.55;;;12.15;;
71888;SDS011;59762;49.998;14.858;2024-01-06T01:09:22;38.03;;;14.15;;
71888;SDS011;59762;49.998;14.858;2024-01-06T01:11:48;41.42;;;14.98;;
71888;SDS011;59762;49.998;14.858;2024-01-06T01:14:13;59.53;;;20.35;;
71888;SDS011;59762;49.998;14.858;2024-01-06T01:16:39;116.85;;;34.45;;
71888;SDS011;59762;49.998;14.858;2024-01-06T01:19:05;130.57;;;36.75;;
71888;SDS011;59762;49.998;14.858;2024-01-06T01:21:30;72.25;;;20.98;;
71888;SDS011;59762;49.998;14.858;2024-01-06T01:23:56;79.78;;;21.42;;
71888;SDS011;59762;49.998;14.858;2024-01-06T01:26:21;87.13;;;28.33;;
71888;SDS011;59762;49.998;14.858;2024-01-06T01:28:47;94.78;;;28.92;;
71888;SDS011;59762;49.998;14.858;2024-01-06T01:31:13;142.18;;;43.70;;
71888;SDS011;59762;49.998;14.858;2024-01-06T01:33:39;126.22;;;37.45;;
71888;SDS011;59762;49.998;14.858;2024-01-06T01:36:04;135.35;;;37.85;;
71888;SDS011;59762;49.998;14.858;2024-01-06T01:38:30;119.35;;;36.75;;
71888;SDS011;59762;49.998;14.858;2024-01-06T01:40:56;82.28;;;25.88;;
71888;SDS011;59762;49.998;14.858;2024-01-06T01:43:22;67.53;;;22.25;;
71888;SDS011;59762;49.998;14.858;2024-01-06T01:45:50;51.80;;;16.55;;
71888;SDS011;59762;49.998;14.858;2024-01-06T01:48:18;18.77;;;7.65;;
71888;SDS011;59762;49.998;14.858;2024-01-06T01:50:45;31.40;;;9.05;;
71888;SDS011;59762;49.998;14.858;2024-01-06T01:53:12;16.27;;;8.27;;
71888;SDS011;59762;49.998;14.858;2024-01-06T01:55:39;21.40;;;8.00;;
71888;SDS011;59762;49.998;14.858;2024-01-06T01:58:06;15.73;;;7.78;;
71888;SDS011;59762;49.998;14.858;2024-01-06T02:00:32;19.83;;;7.25;;
71888;SDS011;59762;49.998;14.858;2024-01-06T02:02:58;23.10;;;10.52;;
71888;SDS011;59762;49.998;14.858;2024-01-06T02:05:24;94.57;;;26.45;;
71888;SDS011;59762;49.998;14.858;2024-01-06T02:07:50;106.60;;;32.28;;
71888;SDS011;59762;49.998;14.858;2024-01-06T02:10:17;156.15;;;42.85;;
71888;SDS011;59762;49.998;14.858;2024-01-06T02:12:43;120.30;;;39.70;;
71888;SDS011;59762;49.998;14.858;2024-01-06T02:15:09;133.85;;;43.83;;
71888;SDS011;59762;49.998;14.858;2024-01-06T02:17:34;55.95;;;17.40;;
71888;SDS011;59762;49.998;14.858;2024-01-06T02:20:00;58.28;;;21.63;;
71888;SDS011;59762;49.998;14.858;2024-01-06T02:22:26;83.90;;;27.90;;
71888;SDS011;59762;49.998;14.858;2024-01-06T02:24:52;114.50;;;28.23;;
71888;SDS011;59762;49.998;14.858;2024-01-06T02:27:18;54.08;;;18.10;;
71888;SDS011;59762;49.998;14.858;2024-01-06T02:29:44;34.08;;;13.23;;
71888;SDS011;59762;49.998;14.858;2024-01-06T02:32:10;28.23;;;12.40;;
71888;SDS011;59762;49.998;14.858;2024-01-06T02:34:35;30.40;;;12.52;;
71888;SDS011;59762;49.998;14.858;2024-01-06T02:37:03;25.90;;;12.70;;
71888;SDS011;59762;49.998;14.858;2024-01-06T02:39:29;21.10;;;9.77;;
71888;SDS011;59762;49.998;14.858;2024-01-06T02:41:55;22.17;;;8.20;;
71888;SDS011;59762;49.998;14.858;2024-01-06T02:44:20;28.55;;;8.40;;
71888;SDS011;59762;49.998;14.858;2024-01-06T02:46:46;33.47;;;10.43;;
71888;SDS011;59762;49.998;14.858;2024-01-06T02:49:11;20.58;;;9.65;;
71888;SDS011;59762;49.998;14.858;2024-01-06T02:51:37;35.47;;;11.63;;
71888;SDS011;59762;49.998;14.858;2024-01-06T02:54:03;35.25;;;12.15;;
71888;SDS011;59762;49.998;14.858;2024-01-06T02:56:29;42.00;;;15.63;;
71888;SDS011;59762;49.998;14.858;2024-01-06T02:58:55;41.72;;;16.88;;
71888;SDS011;59762;49.998;14.858;2024-01-06T03:01:21;43.13;;;17.27;;
71888;SDS011;59762;49.998;14.858;2024-01-06T03:03:46;47.72;;;20.25;;
71888;SDS011;59762;49.998;14.858;2024-01-06T03:06:12;37.45;;;16.08;;
71888;SDS011;59762;49.998;14.858;2024-01-06T03:08:38;41.97;;;17.83;;
71888;SDS011;59762;49.998;14.858;2024-01-06T03:11:06;61.33;;;19.73;;
71888;SDS011;59762;49.998;14.858;2024-01-06T03:13:31;62.00;;;25.67;;
71888;SDS011;59762;49.998;14.858;2024-01-06T03:15:57;73.13;;;28.35;;
71888;SDS011;59762;49.998;14.858;2024-01-06T03:18:23;62.25;;;19.55;;
71888;SDS011;59762;49.998;14.858;2024-01-06T03:20:49;64.10;;;20.52;;
71888;SDS011;59762;49.998;14.858;2024-01-06T03:23:14;62.47;;;22.58;;
71888;SDS011;59762;49.998;14.858;2024-01-06T03:25:40;70.68;;;27.80;;
71888;SDS011;59762;49.998;14.858;2024-01-06T03:28:06;81.50;;;34.40;;
71888;SDS011;59762;49.998;14.858;2024-01-06T03:30:31;66.40;;;28.27;;
71888;SDS011;59762;49.998;14.858;2024-01-06T03:32:57;45.17;;;19.15;;
71888;SDS011;59762;49.998;14.858;2024-01-06T03:35:23;28.02;;;13.57;;
71888;SDS011;59762;49.998;14.858;2024-01-06T03:37:49;27.55;;;12.88;;
71888;SDS011;59762;49.998;14.858;2024-01-06T03:40:15;40.28;;;18.65;;
71888;SDS011;59762;49.998;14.858;2024-01-06T03:42:40;48.25;;;19.80;;
71888;SDS011;59762;49.998;14.858;2024-01-06T03:45:06;50.28;;;21.48;;
71888;SDS011;59762;49.998;14.858;2024-01-06T03:47:32;58.42;;;22.25;;
71888;SDS011;59762;49.998;14.858;2024-01-06T03:49:58;48.78;;;18.25;;
71888;SDS011;59762;49.998;14.858;2024-01-06T03:52:23;45.22;;;18.27;;
71888;SDS011;59762;49.998;14.858;2024-01-06T03:54:49;49.25;;;21.80;;
71888;SDS011;59762;49.998;14.858;2024-01-06T03:57:15;46.13;;;20.52;;
71888;SDS011;59762;49.998;14.858;2024-01-06T03:59:41;56.13;;;20.80;;
71888;SDS011;59762;49.998;14.858;2024-01-06T04:02:07;49.70;;;19.85;;
71888;SDS011;59762;49.998;14.858;2024-01-06T04:04:33;36.72;;;15.00;;
71888;SDS011;59762;49.998;14.858;2024-01-06T04:06:58;18.30;;;9.57;;
71888;SDS011;59762;49.998;14.858;2024-01-06T04:09:26;19.17;;;8.63;;
71888;SDS011;59762;49.998;14.858;2024-01-06T04:11:52;11.05;;;8.00;;
71888;SDS011;59762;49.998;14.858;2024-01-06T04:14:18;19.60;;;10.52;;
71888;SDS011;59762;49.998;14.858;2024-01-06T04:16:43;26.88;;;11.35;;
71888;SDS011;59762;49.998;14.858;2024-01-06T04:19:09;17.77;;;7.65;;
71888;SDS011;59762;49.998;14.858;2024-01-06T04:21:36;20.38;;;8.52;;
71888;SDS011;59762;49.998;14.858;2024-01-06T04:24:02;14.13;;;8.00;;
71888;SDS011;59762;49.998;14.858;2024-01-06T04:26:28;17.05;;;8.93;;
71888;SDS011;59762;49.998;14.858;2024-01-06T04:28:54;19.48;;;8.35;;
71888;SDS011;59762;49.998;14.858;2024-01-06T04:31:19;28.17;;;12.02;;
71888;SDS011;59762;49.998;14.858;2024-01-06T04:33:45;24.98;;;11.48;;
71888;SDS011;59762;49.998;14.858;2024-01-06T04:36:11;38.38;;;13.60;;
71888;SDS011;59762;49.998;14.858;2024-01-06T04:38:36;23.80;;;10.38;;
71888;SDS011;59762;49.998;14.858;2024-01-06T04:41:02;21.08;;;8.73;;
71888;SDS011;59762;49.998;14.858;2024-01-06T04:43:28;21.13;;;7.70;;
71888;SDS011;59762;49.998;14.858;2024-01-06T04:45:54;11.90;;;5.40;;
71888;SDS011;59762;49.998;14.858;2024-01-06T04:48:19;25.55;;;10.35;;
71888;SDS011;59762;49.998;14.858;2024-01-06T04:50:45;31.92;;;10.82;;
71888;SDS011;59762;49.998;14.858;2024-01-06T04:53:11;32.22;;;12.90;;
71888;SDS011;59762;49.998;14.858;2024-01-06T04:55:36;35.17;;;11.80;;
71888;SDS011;59762;49.998;14.858;2024-01-06T04:58:02;25.77;;;9.98;;
71888;SDS011;59762;49.998;14.858;2024-01-06T05:00:28;20.85;;;8.13;;
71888;SDS011;59762;49.998;14.858;2024-01-06T05:02:54;10.40;;;4.97;;
71888;SDS011;59762;49.998;14.858;2024-01-06T05:05:19;8.50;;;4.90;;
71888;SDS011;59762;49.998;14.858;2024-01-06T05:07:45;7.53;;;3.90;;
71888;SDS011;59762;49.998;14.858;2024-01-06T05:10:11;14.77;;;6.63;;
71888;SDS011;59762;49.998;14.858;2024-01-06T05:12:36;15.27;;;7.20;;
71888;SDS011;59762;49.998;14.858;2024-01-06T05:15:02;12.70;;;5.82;;
71888;SDS011;59762;49.998;14.858;2024-01-06T05:17:28;15.20;;;6.82;;
71888;SDS011;59762;49.998;14.858;2024-01-06T05:19:54;13.77;;;6.90;;
71888;SDS011;59762;49.998;14.858;2024-01-06T05:22:20;11.02;;;5.25;;
71888;SDS011;59762;49.998;14.858;2024-01-06T05:24:46;11.27;;;5.88;;
71888;SDS011;59762;49.998;14.858;2024-01-06T05:27:12;9.02;;;4.97;;
71888;SDS011;59762;49.998;14.858;2024-01-06T05:29:37;11.18;;;4.32;;
71888;SDS011;59762;49.998;14.858;2024-01-06T05:32:03;16.33;;;5.82;;
71888;SDS011;59762;49.998;14.858;2024-01-06T05:34:29;11.50;;;5.47;;
71888;SDS011;59762;49.998;14.858;2024-01-06T05:36:54;7.00;;;3.80;;
71888;SDS011;59762;49.998;14.858;2024-01-06T05:39:20;8.10;;;4.07;;
71888;SDS011;59762;49.998;14.858;2024-01-06T05:41:46;8.20;;;4.15;;
71888;SDS011;59762;49.998;14.858;2024-01-06T05:44:11;16.90;;;5.85;;
71888;SDS011;59762;49.998;14.858;2024-01-06T05:46:37;8.02;;;4.15;;
71888;SDS011;59762;49.998;14.858;2024-01-06T05:49:03;9.88;;;4.43;;
71888;SDS011;59762;49.998;14.858;2024-01-06T05:51:29;15.70;;;4.32;;
71888;SDS011;59762;49.998;14.858;2024-01-06T05:53:55;11.80;;;4.57;;
71888;SDS011;59762;49.998;14.858;2024-01-06T05:56:24;14.98;;;6.85;;
71888;SDS011;59762;49.998;14.858;2024-01-06T05:58:51;17.23;;;7.90;;
71888;SDS011;59762;49.998;14.858;2024-01-06T06:01:18;13.27;;;7.32;;
71888;SDS011;59762;49.998;14.858;2024-01-06T06:03:45;9.30;;;6.03;;
71888;SDS011;59762;49.998;14.858;2024-01-06T06:06:11;12.27;;;6.50;;
71888;SDS011;59762;49.998;14.858;2024-01-06T06:08:37;9.90;;;4.72;;
71888;SDS011;59762;49.998;14.858;2024-01-06T06:11:03;11.23;;;4.82;;
71888;SDS011;59762;49.998;14.858;2024-01-06T06:13:39;10.02;;;5.22;;
71888;SDS011;59762;49.998;14.858;2024-01-06T06:16:06;10.73;;;4.88;;
71888;SDS011;59762;49.998;14.858;2024-01-06T06:18:32;19.15;;;5.68;;
71888;SDS011;59762;49.998;14.858;2024-01-06T06:20:58;14.13;;;6.30;;
71888;SDS011;59762;49.998;14.858;2024-01-06T06:23:26;16.67;;;7.18;;
71888;SDS011;59762;49.998;14.858;2024-01-06T06:25:54;12.73;;;6.70;;
71888;SDS011;59762;49.998;14.858;2024-01-06T06:28:20;10.02;;;5.28;;
71888;SDS011;59762;49.998;14.858;2024-01-06T06:30:46;13.18;;;5.55;;
71888;SDS011;59762;49.998;14.858;2024-01-06T06:33:11;10.80;;;5.93;;
71888;SDS011;59762;49.998;14.858;2024-01-06T06:35:37;9.65;;;5.90;;
71888;SDS011;59762;49.998;14.858;2024-01-06T06:38:03;9.13;;;5.80;;
71888;SDS011;59762;49.998;14.858;2024-01-06T06:40:29;16.10;;;6.13;;
71888;SDS011;59762;49.998;14.858;2024-01-06T06:42:55;7.47;;;5.03;;
71888;SDS011;59762;49.998;14.858;2024-01-06T06:45:21;14.20;;;5.47;;
71888;SDS011;59762;49.998;14.858;2024-01-06T06:47:48;10.38;;;5.40;;
71888;SDS011;59762;49.998;14.858;2024-01-06T06:50:17;14.27;;;6.63;;
71888;SDS011;59762;49.998;14.858;2024-01-06T06:52:43;13.15;;;6.05;;
71888;SDS011;59762;49.998;14.858;2024-01-06T06:55:09;11.77;;;5.82;;
71888;SDS011;59762;49.998;14.858;2024-01-06T06:57:36;11.80;;;5.88;;
71888;SDS011;59762;49.998;14.858;2024-01-06T07:00:01;13.48;;;7.28;;
71888;SDS011;59762;49.998;14.858;2024-01-06T07:02:28;11.27;;;5.88;;
71888;SDS011;59762;49.998;14.858;2024-01-06T07:04:53;11.40;;;6.35;;
71888;SDS011;59762;49.998;14.858;2024-01-06T07:07:19;12.57;;;7.93;;
71888;SDS011;59762;49.998;14.858;2024-01-06T07:09:45;15.10;;;7.50;;
71888;SDS011;59762;49.998;14.858;2024-01-06T07:12:10;12.60;;;6.47;;
71888;SDS011;59762;49.998;14.858;2024-01-06T07:14:36;22.95;;;6.95;;
71888;SDS011;59762;49.998;14.858;2024-01-06T07:17:03;15.25;;;7.53;;
71888;SDS011;59762;49.998;14.858;2024-01-06T07:19:29;15.15;;;7.50;;
71888;SDS011;59762;49.998;14.858;2024-01-06T07:21:57;11.73;;;6.72;;
71888;SDS011;59762;49.998;14.858;2024-01-06T07:24:22;13.75;;;7.00;;
71888;SDS011;59762;49.998;14.858;2024-01-06T07:26:48;16.25;;;8.52;;
71888;SDS011;59762;49.998;14.858;2024-01-06T07:29:14;14.82;;;7.85;;
71888;SDS011;59762;49.998;14.858;2024-01-06T07:31:39;16.50;;;7.63;;
71888;SDS011;59762;49.998;14.858;2024-01-06T07:34:05;13.75;;;7.82;;
71888;SDS011;59762;49.998;14.858;2024-01-06T07:36:31;13.68;;;6.50;;
71888;SDS011;59762;49.998;14.858;2024-01-06T07:38:57;12.40;;;7.30;;
71888;SDS011;59762;49.998;14.858;2024-01-06T07:41:23;12.65;;;6.28;;
71888;SDS011;59762;49.998;14.858;2024-01-06T07:43:48;14.80;;;7.95;;
71888;SDS011;59762;49.998;14.858;2024-01-06T07:46:14;13.32;;;6.38;;
71888;SDS011;59762;49.998;14.858;2024-01-06T07:48:40;11.80;;;6.55;;
71888;SDS011;59762;49.998;14.858;2024-01-06T07:51:06;15.10;;;6.38;;
71888;SDS011;59762;49.998;14.858;2024-01-06T07:53:31;18.20;;;9.43;;
71888;SDS011;59762;49.998;14.858;2024-01-06T07:55:57;10.60;;;5.63;;
71888;SDS011;59762;49.998;14.858;2024-01-06T07:58:23;15.10;;;6.72;;
71888;SDS011;59762;49.998;14.858;2024-01-06T08:00:48;14.82;;;7.63;;
71888;SDS011;59762;49.998;14.858;2024-01-06T08:03:14;12.05;;;5.82;;
71888;SDS011;59762;49.998;14.858;2024-01-06T08:05:41;17.80;;;6.72;;
71888;SDS011;59762;49.998;14.858;2024-01-06T08:08:07;14.32;;;7.18;;
71888;SDS011;59762;49.998;14.858;2024-01-06T08:10:33;15.90;;;7.45;;
71888;SDS011;59762;49.998;14.858;2024-01-06T08:12:58;9.13;;;6.22;;
71888;SDS011;59762;49.998;14.858;2024-01-06T08:15:24;12.93;;;6.38;;
71888;SDS011;59762;49.998;14.858;2024-01-06T08:17:50;13.50;;;6.13;;
71888;SDS011;59762;49.998;14.858;2024-01-06T08:20:16;13.50;;;7.43;;
71888;SDS011;59762;49.998;14.858;2024-01-06T08:22:41;15.82;;;7.07;;
71888;SDS011;59762;49.998;14.858;2024-01-06T08:25:07;15.02;;;6.85;;
71888;SDS011;59762;49.998;14.858;2024-01-06T08:27:33;16.15;;;10.23;;
71888;SDS011;59762;49.998;14.858;2024-01-06T08:29:59;13.75;;;7.47;;
71888;SDS011;59762;49.998;14.858;2024-01-06T08:32:26;12.20;;;7.72;;
71888;SDS011;59762;49.998;14.858;2024-01-06T08:34:52;13.10;;;6.72;;
71888;SDS011;59762;49.998;14.858;2024-01-06T08:37:18;10.60;;;6.57;;
71888;SDS011;59762;49.998;14.858;2024-01-06T08:39:44;13.13;;;7.05;;
71888;SDS011;59762;49.998;14.858;2024-01-06T08:42:10;16.73;;;7.30;;
71888;SDS011;59762;49.998;14.858;2024-01-06T08:44:35;12.35;;;6.35;;
71888;SDS011;59762;49.998;14.858;2024-01-06T08:47:01;14.07;;;7.10;;
71888;SDS011;59762;49.998;14.858;2024-01-06T08:49:27;14.20;;;6.80;;
71888;SDS011;59762;49.998;14.858;2024-01-06T08:51:52;13.88;;;6.57;;
71888;SDS011;59762;49.998;14.858;2024-01-06T08:54:18;14.40;;;7.50;;
71888;SDS011;59762;49.998;14.858;2024-01-06T08:56:43;10.77;;;5.43;;
71888;SDS011;59762;49.998;14.858;2024-01-06T08:59:09;11.43;;;7.07;;
71888;SDS011;59762;49.998;14.858;2024-01-06T09:01:35;10.80;;;5.85;;
71888;SDS011;59762;49.998;14.858;2024-01-06T09:04:01;14.48;;;7.15;;
71888;SDS011;59762;49.998;14.858;2024-01-06T09:06:27;13.23;;;7.53;;
71888;SDS011;59762;49.998;14.858;2024-01-06T09:08:53;17.90;;;6.65;;
71888;SDS011;59762;49.998;14.858;2024-01-06T09:11:19;14.48;;;7.78;;
71888;SDS011;59762;49.998;14.858;2024-01-06T09:13:45;17.70;;;8.02;;
71888;SDS011;59762;49.998;14.858;2024-01-06T09:16:10;19.52;;;8.52;;
71888;SDS011;59762;49.998;14.858;2024-01-06T09:18:36;14.02;;;6.90;;
71888;SDS011;59762;49.998;14.858;2024-01-06T09:21:02;12.63;;;7.82;;
71888;SDS011;59762;49.998;14.858;2024-01-06T09:23:28;15.55;;;7.93;;
71888;SDS011;59762;49.998;14.858;2024-01-06T09:25:54;13.23;;;7.13;;
71888;SDS011;59762;49.998;14.858;2024-01-06T09:28:20;13.20;;;7.80;;
71888;SDS011;59762;49.998;14.858;2024-01-06T09:30:48;12.20;;;7.55;;
71888;SDS011;59762;49.998;14.858;2024-01-06T09:33:15;14.07;;;7.38;;
71888;SDS011;59762;49.998;14.858;2024-01-06T09:35:41;11.88;;;6.18;;
71888;SDS011;59762;49.998;14.858;2024-01-06T09:38:07;15.77;;;8.25;;
71888;SDS011;59762;49.998;14.858;2024-01-06T09:40:33;10.35;;;7.03;;
71888;SDS011;59762;49.998;14.858;2024-01-06T09:42:59;15.43;;;7.82;;
71888;SDS011;59762;49.998;14.858;2024-01-06T09:45:25;10.50;;;7.18;;
71888;SDS011;59762;49.998;14.858;2024-01-06T09:47:51;17.88;;;7.40;;
71888;SDS011;59762;49.998;14.858;2024-01-06T09:50:20;12.10;;;7.82;;
71888;SDS011;59762;49.998;14.858;2024-01-06T09:52:47;20.45;;;8.38;;
71888;SDS011;59762;49.998;14.858;2024-01-06T09:55:25;15.90;;;9.15;;
71888;SDS011;59762;49.998;14.858;2024-01-06T09:57:52;13.05;;;8.10;;
71888;SDS011;59762;49.998;14.858;2024-01-06T10:00:19;14.68;;;7.57;;
71888;SDS011;59762;49.998;14.858;2024-01-06T10:02:46;25.15;;;9.52;;
71888;SDS011;59762;49.998;14.858;2024-01-06T10:05:14;17.52;;;8.55;;
71888;SDS011;59762;49.998;14.858;2024-01-06T10:07:42;23.00;;;7.97;;
71888;SDS011;59762;49.998;14.858;2024-01-06T10:10:09;18.30;;;9.00;;
71888;SDS011;59762;49.998;14.858;2024-01-06T10:12:39;17.75;;;8.63;;
71888;SDS011;59762;49.998;14.858;2024-01-06T10:15:10;16.80;;;8.95;;
71888;SDS011;59762;49.998;14.858;2024-01-06T10:17:40;12.85;;;7.38;;
71888;SDS011;59762;49.998;14.858;2024-01-06T10:20:09;15.70;;;9.18;;
71888;SDS011;59762;49.998;14.858;2024-01-06T10:22:37;20.80;;;7.57;;
71888;SDS011;59762;49.998;14.858;2024-01-06T10:25:07;16.67;;;8.63;;
71888;SDS011;59762;49.998;14.858;2024-01-06T10:27:34;15.68;;;8.20;;
71888;SDS011;59762;49.998;14.858;2024-01-06T10:30:01;18.00;;;8.80;;
71888;SDS011;59762;49.998;14.858;2024-01-06T10:32:27;15.32;;;7.35;;
71888;SDS011;59762;49.998;14.858;2024-01-06T10:34:56;14.20;;;8.32;;
71888;SDS011;59762;49.998;14.858;2024-01-06T10:37:23;17.48;;;8.75;;
71888;SDS011;59762;49.998;14.858;2024-01-06T10:40:04;24.15;;;8.65;;
71888;SDS011;59762;49.998;14.858;2024-01-06T10:42:42;19.52;;;8.70;;
71888;SDS011;59762;49.998;14.858;2024-01-06T10:45:08;20.77;;;8.32;;
71888;SDS011;59762;49.998;14.858;2024-01-06T10:47:40;20.77;;;9.60;;
71888;SDS011;59762;49.998;14.858;2024-01-06T10:50:08;25.63;;;10.02;;
71888;SDS011;59762;49.998;14.858;2024-01-06T10:52:34;18.05;;;8.85;;
71888;SDS011;59762;49.998;14.858;2024-01-06T10:55:02;19.30;;;9.68;;
71888;SDS011;59762;49.998;14.858;2024-01-06T10:57:30;18.38;;;9.50;;
71888;SDS011;59762;49.998;14.858;2024-01-06T10:59:59;18.08;;;9.30;;
71888;SDS011;59762;49.998;14.858;2024-01-06T11:02:26;19.42;;;8.60;;
71888;SDS011;59762;49.998;14.858;2024-01-06T11:04:52;16.88;;;8.15;;
71888;SDS011;59762;49.998;14.858;2024-01-06T11:07:21;16.48;;;8.20;;
71888;SDS011;59762;49.998;14.858;2024-01-06T11:12:28;15.25;;;7.75;;
71888;SDS011;59762;49.998;14.858;2024-01-06T11:14:54;19.88;;;7.90;;
71888;SDS011;59762;49.998;14.858;2024-01-06T11:18:05;18.77;;;8.65;;
71888;SDS011;59762;49.998;14.858;2024-01-06T11:20:22;21.65;;;11.85;;
71888;SDS011;59762;49.998;14.858;2024-01-06T11:22:48;20.92;;;9.25;;
71888;SDS011;59762;49.998;14.858;2024-01-06T11:25:16;18.88;;;9.13;;
71888;SDS011;59762;49.998;14.858;2024-01-06T11:27:44;24.30;;;10.98;;
71888;SDS011;59762;49.998;14.858;2024-01-06T11:30:27;16.40;;;9.88;;
71888;SDS011;59762;49.998;14.858;2024-01-06T11:32:57;20.73;;;10.23;;
71888;SDS011;59762;49.998;14.858;2024-01-06T11:35:25;23.02;;;9.80;;
71888;SDS011;59762;49.998;14.858;2024-01-06T11:37:58;24.30;;;10.23;;
71888;SDS011;59762;49.998;14.858;2024-01-06T11:40:33;22.17;;;11.35;;
71888;SDS011;59762;49.998;14.858;2024-01-06T11:43:03;22.75;;;11.38;;
71888;SDS011;59762;49.998;14.858;2024-01-06T11:45:33;23.92;;;10.98;;
71888;SDS011;59762;49.998;14.858;2024-01-06T11:48:01;24.67;;;9.57;;
71888;SDS011;59762;49.998;14.858;2024-01-06T11:50:37;28.10;;;11.25;;
71888;SDS011;59762;49.998;14.858;2024-01-06T11:53:05;21.42;;;10.15;;
71888;SDS011;59762;49.998;14.858;2024-01-06T11:55:32;17.85;;;10.02;;
71888;SDS011;59762;49.998;14.858;2024-01-06T11:58:00;30.77;;;12.38;;
71888;SDS011;59762;49.998;14.858;2024-01-06T12:00:34;22.70;;;11.75;;
71888;SDS011;59762;49.998;14.858;2024-01-06T12:03:02;24.02;;;11.85;;
71888;SDS011;59762;49.998;14.858;2024-01-06T12:05:28;28.08;;;11.85;;
71888;SDS011;59762;49.998;14.858;2024-01-06T12:07:58;38.92;;;12.00;;
71888;SDS011;59762;49.998;14.858;2024-01-06T12:10:25;24.70;;;12.45;;
71888;SDS011;59762;49.998;14.858;2024-01-06T12:12:56;23.33;;;11.80;;
71888;SDS011;59762;49.998;14.858;2024-01-06T12:15:28;37.15;;;14.32;;
71888;SDS011;59762;49.998;14.858;2024-01-06T12:17:56;31.17;;;13.45;;
71888;SDS011;59762;49.998;14.858;2024-01-06T12:20:22;28.65;;;13.95;;
71888;SDS011;59762;49.998;14.858;2024-01-06T12:22:50;39.28;;;14.80;;
71888;SDS011;59762;49.998;14.858;2024-01-06T12:25:23;30.20;;;12.25;;
71888;SDS011;59762;49.998;14.858;2024-01-06T12:27:50;26.80;;;13.70;;
71888;SDS011;59762;49.998;14.858;2024-01-06T12:30:21;29.73;;;14.30;;
71888;SDS011;59762;49.998;14.858;2024-01-06T12:32:48;36.13;;;14.05;;
71888;SDS011;59762;49.998;14.858;2024-01-06T12:35:15;28.83;;;13.05;;
71888;SDS011;59762;49.998;14.858;2024-01-06T12:37:41;35.13;;;12.75;;
71888;SDS011;59762;49.998;14.858;2024-01-06T12:40:10;25.67;;;11.85;;
71888;SDS011;59762;49.998;14.858;2024-01-06T12:42:38;22.45;;;10.73;;
71888;SDS011;59762;49.998;14.858;2024-01-06T12:45:05;26.70;;;11.95;;
71888;SDS011;59762;49.998;14.858;2024-01-06T12:47:32;28.88;;;11.27;;
71888;SDS011;59762;49.998;14.858;2024-01-06T12:49:58;24.10;;;11.13;;
71888;SDS011;59762;49.998;14.858;2024-01-06T12:52:23;27.50;;;12.65;;
71888;SDS011;59762;49.998;14.858;2024-01-06T12:54:49;36.13;;;13.98;;
71888;SDS011;59762;49.998;14.858;2024-01-06T12:57:15;28.80;;;12.07;;
71888;SDS011;59762;49.998;14.858;2024-01-06T12:59:41;30.13;;;12.05;;
71888;SDS011;59762;49.998;14.858;2024-01-06T13:02:08;31.80;;;13.20;;
71888;SDS011;59762;49.998;14.858;2024-01-06T13:04:34;34.63;;;12.95;;
71888;SDS011;59762;49.998;14.858;2024-01-06T13:06:59;30.33;;;13.35;;
71888;SDS011;59762;49.998;14.858;2024-01-06T13:09:26;33.78;;;11.63;;
71888;SDS011;59762;49.998;14.858;2024-01-06T13:11:52;31.40;;;14.18;;
71888;SDS011;59762;49.998;14.858;2024-01-06T13:14:21;26.92;;;12.05;;
71888;SDS011;59762;49.998;14.858;2024-01-06T13:16:46;23.75;;;10.95;;
71888;SDS011;59762;49.998;14.858;2024-01-06T13:19:12;26.58;;;12.15;;
71888;SDS011;59762;49.998;14.858;2024-01-06T13:21:38;27.45;;;12.82;;
71888;SDS011;59762;49.998;14.858;2024-01-06T13:24:06;29.00;;;13.82;;
71888;SDS011;59762;49.998;14.858;2024-01-06T13:26:32;28.00;;;12.70;;
71888;SDS011;59762;49.998;14.858;2024-01-06T13:28:58;31.58;;;11.68;;
71888;SDS011;59762;49.998;14.858;2024-01-06T13:31:24;26.65;;;11.70;;
71888;SDS011;59762;49.998;14.858;2024-01-06T13:33:52;28.90;;;14.23;;
71888;SDS011;59762;49.998;14.858;2024-01-06T13:36:19;20.77;;;10.45;;
71888;SDS011;59762;49.998;14.858;2024-01-06T13:38:45;30.13;;;10.73;;
71888;SDS011;59762;49.998;14.858;2024-01-06T13:41:11;24.80;;;12.07;;
71888;SDS011;59762;49.998;14.858;2024-01-06T13:43:37;26.02;;;10.63;;
71888;SDS011;59762;49.998;14.858;2024-01-06T13:46:03;26.20;;;12.15;;
71888;SDS011;59762;49.998;14.858;2024-01-06T13:48:28;22.15;;;10.60;;
71888;SDS011;59762;49.998;14.858;2024-01-06T13:50:54;29.83;;;12.05;;
71888;SDS011;59762;49.998;14.858;2024-01-06T13:53:20;29.40;;;12.45;;
71888;SDS011;59762;49.998;14.858;2024-01-06T13:55:46;21.83;;;10.90;;
71888;SDS011;59762;49.998;14.858;2024-01-06T13:58:12;24.80;;;11.88;;
71888;SDS011;59762;49.998;14.858;2024-01-06T14:00:37;28.52;;;13.55;;
71888;SDS011;59762;49.998;14.858;2024-01-06T14:03:03;21.15;;;10.32;;
71888;SDS011;59762;49.998;14.858;2024-01-06T14:05:29;27.40;;;11.60;;
71888;SDS011;59762;49.998;14.858;2024-01-06T14:07:56;19.77;;;10.13;;
71888;SDS011;59762;49.998;14.858;2024-01-06T14:10:21;28.77;;;12.20;;
71888;SDS011;59762;49.998;14.858;2024-01-06T14:12:47;21.70;;;9.70;;
71888;SDS011;59762;49.998;14.858;2024-01-06T14:15:13;32.70;;;12.48;;